Mandarin Eagle — S6BQ6 — position and weather

sailwx.info

Track history (hours):
 
Tides and Currents Weather Stations Pressure Air Temp Water Temp Dewpoint Dewpoint Depression Visibility Wind Speed Wind Dir Waves Ship Positions

Mandarin Eagle

Last reported at 2018-Jun-30 16:32 UTC. Time now 2018-Jul-17 04:09 UTC.
Position N 30°60' E 122°29'.
Warning: this ship's position is 16 days out of date.

Length 190 m; draft 6.6 m.

Type: Cargo ship. MMSI: 565892000.

Date/timePositionNaut miles runAvg speedWind from/ knotsBaromVisibWave heightAir tempDewpointWater temp
2018-Jun-30 16:32N 30°60' E 122°29'411.2
2018-Jun-30 16:13N 31°01' E 122°25'510.9
2018-Jun-30 15:48N 31°02' E 122°20'310.7
2018-Jun-30 15:30N 31°02' E 122°17'5 9.5
2018-Jun-30 15:00N 31°02' E 122°11'610.2
2018-Jun-30 14:26N 31°04' E 122°05'510.1
2018-Jun-30 13:59N 31°06' E 121°60'4 9.3
2018-Jun-30 13:30N 31°07' E 121°55'612.8
2018-Jun-30 13:00N 31°12' E 121°49'  
2018-Jun-26 02:47N 31°16' E 121°55'17 8.5
2018-Jun-26 00:48N 31°09' E 122°13'3 9.0
2018-Jun-26 00:29N 31°07' E 122°16'4 9.2
2018-Jun-26 00:00N 31°06' E 122°21'510.4
2018-Jun-25 23:30N 31°06' E 122°27'5 8.8
2018-Jun-25 22:59N 31°07' E 122°32'7 1.2
2018-Jun-25 17:26N 31°04' E 122°40'0 0.0
2018-Jun-25 16:53N 31°04' E 122°40'0 0.1
2018-Jun-25 16:29N 31°04' E 122°40'0 0.1
2018-Jun-25 15:56N 31°04' E 122°40'0 0.0
2018-Jun-25 15:11N 31°04' E 122°40'0 0.0
2018-Jun-25 14:59N 31°04' E 122°40'0 0.1
2018-Jun-25 14:26N 31°04' E 122°40'0 0.1
2018-Jun-25 13:59N 31°04' E 122°40'0 0.0
2018-Jun-25 13:29N 31°04' E 122°40'0 0.1
2018-Jun-25 12:53N 31°04' E 122°39'0 0.0
2018-Jun-25 12:26N 31°04' E 122°39'0 0.1
2018-Jun-25 11:17N 31°04' E 122°39'0 0.1
2018-Jun-25 10:59N 31°04' E 122°39'0 0.1
2018-Jun-25 10:29N 31°04' E 122°39'0 0.1
2018-Jun-25 09:59N 31°04' E 122°39'  
Track history (hours):
 
Tides and Currents Weather Stations Pressure Air Temp Water Temp Dewpoint Dewpoint Depression Visibility Wind Speed Wind Dir Waves Ship Positions

Mandarin Eagle

Last reported at 2018-Jun-30 16:32 UTC. Time now 2018-Jul-17 04:09 UTC.
Position N 30°60' E 122°29'.
Warning: this ship's position is 16 days out of date.

Length 190 m; draft 6.6 m.

Type: Cargo ship. MMSI: 565892000.

Date/timePositionNaut miles runAvg speedWind from/ knotsBaromVisibWave heightAir tempDewpointWater temp
2018-Jun-30 16:32N 30°60' E 122°29'411.2
2018-Jun-30 16:13N 31°01' E 122°25'510.9
2018-Jun-30 15:48N 31°02' E 122°20'310.7
2018-Jun-30 15:30N 31°02' E 122°17'5 9.5
2018-Jun-30 15:00N 31°02' E 122°11'610.2
2018-Jun-30 14:26N 31°04' E 122°05'510.1
2018-Jun-30 13:59N 31°06' E 121°60'4 9.3
2018-Jun-30 13:30N 31°07' E 121°55'612.8
2018-Jun-30 13:00N 31°12' E 121°49'  
2018-Jun-26 02:47N 31°16' E 121°55'17 8.5
2018-Jun-26 00:48N 31°09' E 122°13'3 9.0
2018-Jun-26 00:29N 31°07' E 122°16'4 9.2
2018-Jun-26 00:00N 31°06' E 122°21'510.4
2018-Jun-25 23:30N 31°06' E 122°27'5 8.8
2018-Jun-25 22:59N 31°07' E 122°32'7 1.2
2018-Jun-25 17:26N 31°04' E 122°40'0 0.0
2018-Jun-25 16:53N 31°04' E 122°40'0 0.1
2018-Jun-25 16:29N 31°04' E 122°40'0 0.1
2018-Jun-25 15:56N 31°04' E 122°40'0 0.0
2018-Jun-25 15:11N 31°04' E 122°40'0 0.0
2018-Jun-25 14:59N 31°04' E 122°40'0 0.1
2018-Jun-25 14:26N 31°04' E 122°40'0 0.1
2018-Jun-25 13:59N 31°04' E 122°40'0 0.0
2018-Jun-25 13:29N 31°04' E 122°40'0 0.1
2018-Jun-25 12:53N 31°04' E 122°39'0 0.0
2018-Jun-25 12:26N 31°04' E 122°39'0 0.1
2018-Jun-25 11:17N 31°04' E 122°39'0 0.1
2018-Jun-25 10:59N 31°04' E 122°39'0 0.1
2018-Jun-25 10:29N 31°04' E 122°39'0 0.1
2018-Jun-25 09:59N 31°04' E 122°39'  

Dump ship's entire track history